KDBN/DBN METAR and TAF weather

Enter ICAO airport designator
Station Type Date Time Source
KDBN METAR 2020/07/12 19:55 UTC NOAA

KDBN 121955Z AUTO 32004KT 10SM CLR 33/18 A2986 RMK AO2


Station Type Date Time Source
KDBN Decoded METAR 2020/07/12 19:55 UTC NOAA

Dublin, W H 'Bud' Barron Airport, GA, United States (KDBN) 32-33-52N 082-59-06W
Jul 12, 2020 - 03:55 PM EDT / 2020.07.12 1955 UTC
Wind: from the NW (320 degrees) at 5 MPH (4 KT):0
Visibility: 10 mile(s):0
Sky conditions: clear
Temperature: 91 F (33 C)
Dew Point: 64 F (18 C)
Relative Humidity: 41%
Pressure (altimeter): 29.86 in. Hg (1011 hPa)
ob: KDBN 121955Z AUTO 32004KT 10SM CLR 33/18 A2986 RMK AO2
cycle: 20

Station Type Date Time Source
KDBN TAF UTC NOAA

Error!

Example: see airport list